Consolidator — V7LQ9 — position and weather

sailwx.info

Track history (hours):
 
Tides and Currents Weather Stations Pressure Air Temp Water Temp Dewpoint Dewpoint Depression Visibility Wind Speed Wind Dir Waves Ship Positions

Consolidator

Last reported at 2018-May-21 17:06 UTC. Time now 2018-May-24 08:10 UTC.
Position N 01°12' E 103°35'.

Length 190 m; draft 11.3 m.

Type: Cargo ship. MMSI: 538002793.

Date/timePositionNaut miles runAvg speedWind from/ knotsBaromVisibWave heightAir tempDewpointWater temp
2018-May-21 17:06N 01°12' E 103°35'313.2
2018-May-21 16:51N 01°11' E 103°38'412.5
2018-May-21 16:30N 01°09' E 103°42'611.4
2018-May-21 16:00N 01°11' E 103°48'713.2
2018-May-21 15:30N 01°13' E 103°54'4 8.1
2018-May-21 14:58N 01°16' E 103°57'1 0.1
2018-May-21 01:02N 01°17' E 103°57'0 0.4
2018-May-21 00:54N 01°17' E 103°57'1 2.7
2018-May-21 00:30N 01°17' E 103°58'1 1.9
2018-May-20 23:59N 01°16' E 103°58'2 4.0
2018-May-20 23:30N 01°16' E 103°60'5 9.2
2018-May-20 23:00N 01°16' E 104°04'510.0
2018-May-20 22:27N 01°17' E 104°10'5 9.6
2018-May-20 21:53N 01°18' E 104°15'4 9.4
2018-May-20 21:28N 01°19' E 104°19'510.1
2018-May-20 20:57N 01°22' E 104°23'510.3
2018-May-20 20:29N 01°25' E 104°27'  
2018-May-15 07:35N 22°53' E 119°40'112.2
2018-May-15 07:30N 22°54' E 119°41'712.5
2018-May-15 06:56N 22°60' E 119°45'512.3
2018-May-15 06:30N 23°05' E 119°48'1211.6
2018-May-15 05:25N 23°16' E 119°54'712.4
2018-May-15 04:50N 23°23' E 119°55'612.0
2018-May-15 04:18N 23°29' E 119°55'411.4
2018-May-15 03:59N 23°33' E 119°56'510.8
2018-May-15 03:30N 23°38' E 119°56'  
2018-May-12 03:10N 34°12' E 129°47'511.6
2018-May-12 02:45N 34°16' E 129°52'311.8
2018-May-12 02:30N 34°17' E 129°55'611.2
2018-May-12 02:00N 34°21' E 129°59'611.2
2018-May-12 01:30N 34°25' E 130°04'611.1
2018-May-12 01:00N 34°29' E 130°09'611.1
2018-May-12 00:30N 34°32' E 130°15'611.0
2018-May-12 00:00N 34°36' E 130°20'510.5
2018-May-11 23:30N 34°39' E 130°25'611.5
2018-May-11 22:57N 34°43' E 130°30'  
Track history (hours):
 
Tides and Currents Weather Stations Pressure Air Temp Water Temp Dewpoint Dewpoint Depression Visibility Wind Speed Wind Dir Waves Ship Positions

Consolidator

Last reported at 2018-May-21 17:06 UTC. Time now 2018-May-24 08:10 UTC.
Position N 01°12' E 103°35'.

Length 190 m; draft 11.3 m.

Type: Cargo ship. MMSI: 538002793.

Date/timePositionNaut miles runAvg speedWind from/ knotsBaromVisibWave heightAir tempDewpointWater temp
2018-May-21 17:06N 01°12' E 103°35'313.2
2018-May-21 16:51N 01°11' E 103°38'412.5
2018-May-21 16:30N 01°09' E 103°42'611.4
2018-May-21 16:00N 01°11' E 103°48'713.2
2018-May-21 15:30N 01°13' E 103°54'4 8.1
2018-May-21 14:58N 01°16' E 103°57'1 0.1
2018-May-21 01:02N 01°17' E 103°57'0 0.4
2018-May-21 00:54N 01°17' E 103°57'1 2.7
2018-May-21 00:30N 01°17' E 103°58'1 1.9
2018-May-20 23:59N 01°16' E 103°58'2 4.0
2018-May-20 23:30N 01°16' E 103°60'5 9.2
2018-May-20 23:00N 01°16' E 104°04'510.0
2018-May-20 22:27N 01°17' E 104°10'5 9.6
2018-May-20 21:53N 01°18' E 104°15'4 9.4
2018-May-20 21:28N 01°19' E 104°19'510.1
2018-May-20 20:57N 01°22' E 104°23'510.3
2018-May-20 20:29N 01°25' E 104°27'  
2018-May-15 07:35N 22°53' E 119°40'112.2
2018-May-15 07:30N 22°54' E 119°41'712.5
2018-May-15 06:56N 22°60' E 119°45'512.3
2018-May-15 06:30N 23°05' E 119°48'1211.6
2018-May-15 05:25N 23°16' E 119°54'712.4
2018-May-15 04:50N 23°23' E 119°55'612.0
2018-May-15 04:18N 23°29' E 119°55'411.4
2018-May-15 03:59N 23°33' E 119°56'510.8
2018-May-15 03:30N 23°38' E 119°56'  
2018-May-12 03:10N 34°12' E 129°47'511.6
2018-May-12 02:45N 34°16' E 129°52'311.8
2018-May-12 02:30N 34°17' E 129°55'611.2
2018-May-12 02:00N 34°21' E 129°59'611.2
2018-May-12 01:30N 34°25' E 130°04'611.1
2018-May-12 01:00N 34°29' E 130°09'611.1
2018-May-12 00:30N 34°32' E 130°15'611.0
2018-May-12 00:00N 34°36' E 130°20'510.5
2018-May-11 23:30N 34°39' E 130°25'611.5
2018-May-11 22:57N 34°43' E 130°30'  

Dump ship's entire track history